Time;durP1;ratioP1;P1;durP2;ratioP2;P2;SDS_P1;SDS_P2;PMS_P1;PMS_P2;Temp;Humidity;BMP_temperature;BMP_pressure;BME280_temperature;BME280_humidity;BME280_pressure;Samples;Min_cycle;Max_cycle;Signal;HPM_P1;HPM_P2
2022/06/14 00:01:55;;;;;;;;;;;;;;;19.79;76.53;99522.83;1728996;83;20220;-81
2022/06/14 00:04:59;;;;;;;;;;;;;;;19.80;76.78;99518.95;1729835;83;20201;-81
2022/06/14 00:08:04;;;;;;;;;;;;;;;19.81;76.90;99519.83;1729730;83;20269;-81
2022/06/14 00:11:13;;;;;;;;;;;;;;;19.81;76.81;99515.66;1729494;83;20216;-81
2022/06/14 00:14:19;;;;;;;;;;;;;;;19.79;76.09;99522.00;1727924;82;20209;-80
2022/06/14 00:17:18;;;;;;;;;;;;;;;19.75;75.62;99518.05;1728634;83;20217;-80
2022/06/14 00:20:09;;;;;;;;;;;;;;;19.72;75.57;99521.36;1729487;83;20642;-80
2022/06/14 00:22:54;;;;;;;;;;;;;;;19.69;75.43;99517.69;1729277;83;20646;-80
2022/06/14 00:26:00;;;;;;;;;;;;;;;19.66;75.93;99524.02;1729696;83;20620;-80
2022/06/14 00:29:05;;;;;;;;;;;;;;;19.66;76.80;99521.25;1729922;83;20216;-81
2022/06/14 00:32:10;;;;;;;;;;;;;;;19.69;77.64;99519.92;1729012;83;21152;-80
2022/06/14 00:35:15;;;;;;;;;;;;;;;19.69;77.40;99517.69;1727932;83;20650;-80
2022/06/14 00:38:21;;;;;;;;;;;;;;;19.63;76.63;99528.72;1728118;83;20229;-81
2022/06/14 00:41:40;;;;;;;;;;;;;;;19.50;77.13;99525.42;1728408;83;20213;-81
2022/06/14 00:44:46;;;;;;;;;;;;;;;19.43;77.67;99526.97;1727981;83;20217;-80
2022/06/14 00:47:55;;;;;;;;;;;;;;;19.34;78.35;99525.73;1729541;83;20217;-81
2022/06/14 00:51:26;;;;;;;;;;;;;;;19.29;78.45;99525.62;1729553;83;20229;-80
2022/06/14 00:54:42;;;;;;;;;;;;;;;19.29;78.70;99527.02;1728308;83;20243;-81
2022/06/14 00:57:55;;;;;;;;;;;;;;;19.29;79.79;99529.78;1729924;83;20221;-81
2022/06/14 01:01:03;;;;;;;;;;;;;;;19.30;80.90;99536.48;1729699;83;20221;-81
2022/06/14 01:04:11;;;;;;;;;;;;;;;19.30;81.74;99532.33;1728803;83;20661;-81
2022/06/14 01:07:30;;;;;;;;;;;;;;;19.29;83.02;99535.33;1729098;83;20213;-81
2022/06/14 01:10:36;;;;;;;;;;;;;;;19.26;84.11;99536.69;1729486;83;20244;-81
2022/06/14 01:13:35;;;;;;;;;;;;;;;19.22;85.26;99536.06;1729064;83;20216;-81
2022/06/14 01:16:27;;;;;;;;;;;;;;;19.15;86.05;99534.30;1729764;83;20583;-81
2022/06/14 01:19:34;;;;;;;;;;;;;;;19.08;87.57;99536.38;1729581;83;20623;-81
2022/06/14 01:22:39;;;;;;;;;;;;;;;19.00;89.22;99542.33;1729036;83;20217;-81
2022/06/14 01:25:46;;;;;;;;;;;;;;;18.97;90.17;99546.17;1733121;83;20221;-81
2022/06/14 01:28:55;;;;;;;;;;;;;;;18.94;90.77;99541.95;1737591;82;20218;-81
2022/06/14 01:32:04;;;;;;;;;;;;;;;18.91;91.59;99536.90;1735957;82;20245;-81
2022/06/14 01:35:13;;;;;;;;;;;;;;;18.89;92.29;99540.48;1735925;82;20217;-80
2022/06/14 01:38:19;;;;;;;;;;;;;;;18.86;93.00;99541.80;1736751;82;20241;-80
2022/06/14 01:41:52;;;;;;;;;;;;;;;18.86;93.62;99546.50;1736519;82;20233;-80
2022/06/14 01:45:02;;;;;;;;;;;;;;;18.87;93.83;99534.36;1736612;82;20230;-81
2022/06/14 01:48:20;;;;;;;;;;;;;;;18.92;93.72;99540.54;1737597;82;20243;-81
2022/06/14 01:51:52;;;;;;;;;;;;;;;18.97;93.38;99535.92;1737792;82;20190;-80
2022/06/14 01:55:17;;;;;;;;;;;;;;;19.02;92.80;99542.94;1735927;82;20234;-80
2022/06/14 01:58:32;;;;;;;;;;;;;;;19.17;92.48;99541.52;1737506;82;20222;-80
2022/06/14 02:01:47;;;;;;;;;;;;;;;19.37;91.65;99540.46;1737622;82;20623;-80
2022/06/14 02:05:10;;;;;;;;;;;;;;;19.62;90.91;99542.30;1736077;82;20750;-81
2022/06/14 02:08:20;;;;;;;;;;;;;;;19.97;89.46;99542.52;1735764;82;20225;-80
2022/06/14 02:11:32;;;;;;;;;;;;;;;20.28;87.69;99542.38;1737566;82;20301;-81
2022/06/14 02:14:46;;;;;;;;;;;;;;;20.57;86.08;99544.98;1736724;82;20667;-81
2022/06/14 02:17:57;;;;;;;;;;;;;;;20.81;84.36;99532.45;1737557;82;20261;-81
2022/06/14 02:21:27;;;;;;;;;;;;;;;21.05;82.75;99534.91;1738688;82;20193;-81
2022/06/14 02:24:34;;;;;;;;;;;;;;;21.22;81.40;99538.41;1706498;83;20217;-81
2022/06/14 02:27:55;;;;;;;;;;;;;;;21.40;80.28;99539.40;1724275;83;20216;-81
2022/06/14 02:31:18;;;;;;;;;;;;;;;21.55;79.19;99542.88;1724045;83;20216;-81
2022/06/14 02:34:15;;;;;;;;;;;;;;;21.69;78.07;99542.70;1723658;83;20252;-81
2022/06/14 02:37:22;;;;;;;;;;;;;;;21.69;77.29;99548.27;1724023;83;20290;-81
2022/06/14 02:40:40;;;;;;;;;;;;;;;21.58;77.03;99544.27;1723199;83;20229;-81
2022/06/14 02:43:59;;;;;;;;;;;;;;;21.47;77.26;99549.48;1723810;83;20285;-81
2022/06/14 02:47:31;;;;;;;;;;;;;;;21.45;77.25;99549.73;1723868;83;20212;-81
2022/06/14 02:50:41;;;;;;;;;;;;;;;21.42;77.12;99545.55;1714263;83;20215;-81
2022/06/14 02:53:54;;;;;;;;;;;;;;;21.36;77.23;99545.76;1723426;83;20196;-81
2022/06/14 02:57:16;;;;;;;;;;;;;;;21.29;77.40;99547.35;1721817;83;20805;-81
2022/06/14 03:00:29;;;;;;;;;;;;;;;21.21;77.72;99542.27;1723701;83;20252;-81
2022/06/14 03:03:46;;;;;;;;;;;;;;;21.17;78.20;99547.55;1721862;83;20646;-81
2022/06/14 03:07:14;;;;;;;;;;;;;;;21.23;78.62;99548.42;1723510;83;20260;-81
2022/06/14 03:10:17;;;;;;;;;;;;;;;21.36;78.57;99551.32;1722395;83;20217;-81
2022/06/14 03:13:29;;;;;;;;;;;;;;;21.65;78.05;99554.08;1723904;83;20676;-81
2022/06/14 03:16:54;;;;;;;;;;;;;;;22.00;76.85;99551.78;1722229;83;20260;-82
2022/06/14 03:20:05;;;;;;;;;;;;;;;22.38;75.25;99558.96;1723861;83;20237;-81
2022/06/14 03:23:23;;;;;;;;;;;;;;;22.70;73.31;99555.46;1722266;83;20655;-81
2022/06/14 03:26:34;;;;;;;;;;;;;;;22.98;72.34;99551.94;1724118;83;20217;-81
2022/06/14 03:29:51;;;;;;;;;;;;;;;23.19;69.99;99546.64;1730354;83;20241;-81
2022/06/14 03:33:23;;;;;;;;;;;;;;;23.19;68.79;99543.85;1729611;83;20213;-81
2022/06/14 03:36:29;;;;;;;;;;;;;;;23.25;67.86;99540.53;1728399;83;20686;-82
2022/06/14 03:39:36;;;;;;;;;;;;;;;23.42;66.91;99546.66;1729597;83;20244;-82
2022/06/14 03:42:42;;;;;;;;;;;;;;;23.64;66.56;99535.23;1729601;83;20216;-81
2022/06/14 03:45:52;;;;;;;;;;;;;;;23.87;65.13;99551.13;1728165;83;20287;-81
2022/06/14 03:48:59;;;;;;;;;;;;;;;23.99;64.90;99543.25;1729648;83;20597;-81
2022/06/14 03:52:37;;;;;;;;;;;;;;;24.05;63.82;99547.73;1729557;83;20280;-81
2022/06/14 03:56:06;;;;;;;;;;;;;;;23.91;63.55;99550.84;1728931;83;20217;-81
2022/06/14 03:59:20;;;;;;;;;;;;;;;23.65;64.76;99553.66;1729330;83;20220;-81
2022/06/14 04:06:07;;;;;;;;;;;;;;;23.45;65.87;99553.08;1728903;83;20480;-81
2022/06/14 04:09:25;;;;;;;;;;;;;;;23.41;65.82;99555.31;1729487;83;20213;-81
2022/06/14 04:12:49;;;;;;;;;;;;;;;23.39;66.09;99557.00;1729768;83;20225;-81
2022/06/14 04:16:06;;;;;;;;;;;;;;;23.39;66.43;99557.00;1728233;83;20618;-82
2022/06/14 04:19:33;;;;;;;;;;;;;;;23.35;66.44;99555.88;1729489;83;20236;-81
2022/06/14 04:23:04;;;;;;;;;;;;;;;23.46;67.14;99564.52;1728036;82;20694;-82
2022/06/14 04:26:26;;;;;;;;;;;;;;;23.68;66.54;99562.88;1713594;83;20229;-81
2022/06/14 04:29:46;;;;;;;;;;;;;;;23.99;66.37;99567.00;1710796;84;20281;-81
2022/06/14 04:33:00;;;;;;;;;;;;;;;24.31;64.66;99570.82;1724500;83;20213;-81
2022/06/14 04:36:17;;;;;;;;;;;;;;;24.44;63.07;99570.81;1723048;83;20615;-80
2022/06/14 04:39:25;;;;;;;;;;;;;;;24.61;62.38;99573.27;1724422;83;20245;-80
2022/06/14 04:42:40;;;;;;;;;;;;;;;24.87;62.29;99577.59;1722626;83;20237;-80
2022/06/14 04:45:47;;;;;;;;;;;;;;;25.10;61.07;99573.28;1723964;83;20284;-80
2022/06/14 04:48:56;;;;;;;;;;;;;;;25.41;61.09;99570.28;1722732;83;20201;-81
2022/06/14 04:52:14;;;;;;;;;;;;;;;25.71;59.62;99570.00;1722768;83;20672;-80
2022/06/14 04:55:31;;;;;;;;;;;;;;;25.95;56.02;99568.67;1722753;83;20245;-80
2022/06/14 04:58:38;;;;;;;;;;;;;;;26.21;56.37;99574.02;1724772;83;20177;-80
2022/06/14 05:02:01;;;;;;;;;;;;;;;26.49;56.49;99571.75;1723442;83;20268;-80
2022/06/14 05:05:15;;;;;;;;;;;;;;;26.81;56.34;99569.36;1723464;83;20650;-80
2022/06/14 05:08:39;;;;;;;;;;;;;;;27.00;53.92;99570.20;1716770;83;20228;-80
2022/06/14 05:12:00;;;;;;;;;;;;;;;27.26;54.18;99558.06;1773063;81;20219;-80
2022/06/14 05:15:21;;;;;;;;;;;;;;;27.51;53.27;99561.02;1737268;82;20213;-80
2022/06/14 05:18:29;;;;;;;;;;;;;;;27.65;51.30;99561.89;1735481;83;20217;-80
2022/06/14 05:21:57;;;;;;;;;;;;;;;27.67;50.22;99563.84;1737045;82;20189;-80
2022/06/14 05:25:02;;;;;;;;;;;;;;;27.68;47.97;99570.30;1767383;81;20239;-80
2022/06/14 05:28:12;;;;;;;;;;;;;;;27.76;48.36;99566.81;1764582;81;20254;-80
2022/06/14 05:31:25;;;;;;;;;;;;;;;27.86;45.32;99572.83;1767167;81;20215;-80
2022/06/14 05:34:48;;;;;;;;;;;;;;;27.99;45.92;99580.42;1767158;81;20613;-80
2022/06/14 05:38:12;;;;;;;;;;;;;;;28.11;45.59;99577.95;1765910;81;20291;-80
2022/06/14 05:41:19;;;;;;;;;;;;;;;28.23;43.82;99576.89;1766248;81;20647;-80
2022/06/14 05:44:20;;;;;;;;;;;;;;;28.29;43.04;99581.83;1765397;81;20214;-80
2022/06/14 05:47:30;;;;;;;;;;;;;;;28.34;43.87;99578.95;1766112;81;20215;-80
2022/06/14 05:50:47;;;;;;;;;;;;;;;28.46;42.64;99577.01;1767022;81;20223;-80
2022/06/14 05:53:56;;;;;;;;;;;;;;;28.56;42.87;99583.00;1767820;81;20215;-80
2022/06/14 05:57:05;;;;;;;;;;;;;;;28.75;44.03;99578.11;1767004;81;20235;-80
2022/06/14 06:00:19;;;;;;;;;;;;;;;28.94;43.23;99579.38;1765917;81;20251;-80
2022/06/14 06:03:55;;;;;;;;;;;;;;;28.87;43.60;99578.96;1767294;81;20211;-80
2022/06/14 06:06:55;;;;;;;;;;;;;;;28.92;43.61;99577.44;1766681;81;20238;-79
2022/06/14 06:10:13;;;;;;;;;;;;;;;29.15;42.40;99574.13;1767657;81;20211;-80
2022/06/14 06:13:22;;;;;;;;;;;;;;;29.39;43.40;99576.66;1767635;81;20227;-80
2022/06/14 06:16:52;;;;;;;;;;;;;;;29.58;42.53;99578.73;1765761;81;20211;-81
2022/06/14 06:20:01;;;;;;;;;;;;;;;29.73;42.42;99575.52;1766414;81;20224;-81
2022/06/14 06:23:13;;;;;;;;;;;;;;;29.92;42.23;99574.48;1767207;81;20238;-81
2022/06/14 06:26:23;;;;;;;;;;;;;;;30.00;41.29;99577.35;1767354;81;20211;-79
2022/06/14 06:29:33;;;;;;;;;;;;;;;30.11;41.70;99573.66;1768308;81;20262;-81
2022/06/14 06:32:38;;;;;;;;;;;;;;;30.31;41.05;99575.72;1762643;81;20214;-81
2022/06/14 06:35:55;;;;;;;;;;;;;;;30.49;40.28;99578.87;1706626;84;20200;-80
2022/06/14 06:39:38;;;;;;;;;;;;;;;30.60;40.54;99575.98;1706259;84;20220;-80
2022/06/14 06:43:11;;;;;;;;;;;;;;;30.67;39.51;99574.91;1680152;84;20296;-81
2022/06/14 06:46:20;;;;;;;;;;;;;;;30.93;39.36;99582.08;1711107;82;20285;-81
2022/06/14 06:49:29;;;;;;;;;;;;;;;31.02;37.63;99577.86;1715638;84;20259;-78
2022/06/14 06:52:42;;;;;;;;;;;;;;;30.98;37.42;99586.73;1707526;84;20247;-81
2022/06/14 06:56:00;;;;;;;;;;;;;;;31.07;39.07;99583.34;1713950;82;20216;-80
2022/06/14 06:59:14;;;;;;;;;;;;;;;31.20;38.81;99590.02;1720430;82;20208;-80
2022/06/14 07:02:19;;;;;;;;;;;;;;;31.31;39.30;99591.37;1713408;82;20217;-80
2022/06/14 07:05:24;;;;;;;;;;;;;;;31.39;39.06;99588.30;1719107;82;20200;-80
2022/06/14 07:08:33;;;;;;;;;;;;;;;31.48;37.62;99594.78;1737276;82;20762;-80
2022/06/14 07:11:54;;;;;;;;;;;;;;;31.59;37.51;99603.75;1715180;82;20240;-80
2022/06/14 07:15:02;;;;;;;;;;;;;;;31.67;36.83;99598.09;1710656;83;20215;-80
2022/06/14 07:18:15;;;;;;;;;;;;;;;31.67;35.73;99593.86;1734188;81;20239;-80
2022/06/14 07:21:28;;;;;;;;;;;;;;;31.58;36.25;99595.03;1718945;82;20216;-80
2022/06/14 07:24:40;;;;;;;;;;;;;;;31.60;37.09;99597.75;1756864;81;20657;-80
2022/06/14 07:27:58;;;;;;;;;;;;;;;31.72;37.41;99597.09;1745000;81;20233;-80
2022/06/14 07:31:06;;;;;;;;;;;;;;;31.80;36.70;99595.64;1720691;81;20203;-80
2022/06/14 07:34:13;;;;;;;;;;;;;;;31.80;36.33;99598.47;1701369;83;20224;-80
2022/06/14 07:37:21;;;;;;;;;;;;;;;31.83;36.31;99589.95;1736270;82;20280;-80
2022/06/14 07:40:41;;;;;;;;;;;;;;;31.92;35.67;99584.28;1733344;81;20233;-80
2022/06/14 07:43:56;;;;;;;;;;;;;;;32.02;35.72;99585.33;1716903;82;20342;-81
2022/06/14 07:47:19;;;;;;;;;;;;;;;32.05;35.78;99584.66;1730138;82;20532;-81
2022/06/14 07:50:29;;;;;;;;;;;;;;;32.03;34.83;99579.91;1713920;83;20234;-80
2022/06/14 07:53:47;;;;;;;;;;;;;;;32.04;34.92;99578.73;1707862;82;20623;-80
2022/06/14 07:57:00;;;;;;;;;;;;;;;32.13;34.91;99574.47;1718980;82;20207;-80
2022/06/14 08:03:38;;;;;;;;;;;;;;;32.02;35.35;99578.26;1714467;83;20231;-80
2022/06/14 08:06:47;;;;;;;;;;;;;;;31.94;34.23;99576.27;1713031;83;20267;-80
2022/06/14 08:10:05;;;;;;;;;;;;;;;31.96;36.06;99586.69;1710086;83;20657;-80
2022/06/14 08:13:15;;;;;;;;;;;;;;;32.05;34.68;99579.01;1738188;82;20261;-80
2022/06/14 08:16:22;;;;;;;;;;;;;;;32.25;35.15;99578.85;1744429;82;20225;-80
2022/06/14 08:19:33;;;;;;;;;;;;;;;32.42;33.54;99572.30;1735224;82;20296;-81
2022/06/14 08:22:40;;;;;;;;;;;;;;;32.66;31.99;99572.54;1744270;82;20216;-81
2022/06/14 08:25:46;;;;;;;;;;;;;;;32.86;31.26;99568.67;1752512;82;20244;-80
2022/06/14 08:28:55;;;;;;;;;;;;;;;32.97;30.78;99571.36;1728818;82;20280;-81
2022/06/14 08:32:06;;;;;;;;;;;;;;;33.01;31.04;99568.92;1717392;82;20231;-81
2022/06/14 08:35:16;;;;;;;;;;;;;;;32.78;30.76;99566.95;1725145;82;20237;-81
2022/06/14 08:38:42;;;;;;;;;;;;;;;32.60;31.20;99561.14;1712150;83;20202;-80
2022/06/14 08:41:54;;;;;;;;;;;;;;;32.64;31.45;99555.05;1725244;82;20668;-81
2022/06/14 08:45:12;;;;;;;;;;;;;;;32.74;31.56;99554.65;1739627;82;20205;-80
2022/06/14 08:48:29;;;;;;;;;;;;;;;32.87;31.12;99549.09;1712824;82;20474;-80
2022/06/14 08:51:41;;;;;;;;;;;;;;;32.79;31.11;99544.57;1717779;82;20700;-80
2022/06/14 08:55:10;;;;;;;;;;;;;;;32.83;31.66;99541.27;1742649;82;20181;-80
2022/06/14 08:58:41;;;;;;;;;;;;;;;32.88;31.23;99540.83;1732108;82;20226;-80
2022/06/14 09:02:09;;;;;;;;;;;;;;;32.74;30.12;99533.41;1719134;82;20239;-81
2022/06/14 09:05:43;;;;;;;;;;;;;;;32.49;30.14;99531.58;1712710;82;20677;-81
2022/06/14 09:08:55;;;;;;;;;;;;;;;32.36;30.71;99527.78;1719390;82;20219;-80
2022/06/14 09:12:03;;;;;;;;;;;;;;;32.41;31.32;99529.03;1718228;82;20243;-80
2022/06/14 09:15:34;;;;;;;;;;;;;;;32.62;31.18;99529.09;1727645;82;20634;-80
2022/06/14 09:18:54;;;;;;;;;;;;;;;32.82;30.40;99531.13;1718850;82;20275;-80
2022/06/14 09:22:07;;;;;;;;;;;;;;;33.07;30.07;99532.72;1715722;82;20232;-80
2022/06/14 09:25:32;;;;;;;;;;;;;;;33.22;28.48;99522.20;1722389;82;20253;-81
2022/06/14 09:28:53;;;;;;;;;;;;;;;33.36;29.80;99533.80;1737676;82;20692;-81
2022/06/14 09:32:18;;;;;;;;;;;;;;;33.47;30.27;99535.91;1720003;82;20631;-80
2022/06/14 09:35:27;;;;;;;;;;;;;;;33.52;30.12;99533.45;1701455;83;20208;-79
2022/06/14 09:39:09;;;;;;;;;;;;;;;33.56;29.99;99534.41;1692438;85;20242;-80
2022/06/14 09:42:43;;;;;;;;;;;;;;;33.51;28.57;99530.38;1717605;83;20271;-80
2022/06/14 09:46:00;;;;;;;;;;;;;;;33.43;29.99;99525.61;1718517;83;20262;-79
2022/06/14 09:49:36;;;;;;;;;;;;;;;33.43;27.41;99521.36;1721751;83;20637;-79
2022/06/14 09:53:14;;;;;;;;;;;;;;;33.44;29.13;99515.92;1722688;83;20230;-79
2022/06/14 09:56:37;;;;;;;;;;;;;;;33.57;28.38;99521.89;1722931;83;20231;-79
2022/06/14 10:00:00;;;;;;;;;;;;;;;33.78;27.65;99520.41;1713018;83;20733;-80
2022/06/14 10:03:25;;;;;;;;;;;;;;;33.87;26.35;99525.98;1697023;83;20809;-80
2022/06/14 10:07:07;;;;;;;;;;;;;;;33.81;25.85;99529.64;1698578;83;20673;-80
2022/06/14 10:10:47;;;;;;;;;;;;;;;33.70;28.13;99530.67;1720413;83;20448;-80
2022/06/14 10:14:02;;;;;;;;;;;;;;;33.26;29.41;99528.80;1701258;83;20300;-80
2022/06/14 10:17:21;;;;;;;;;;;;;;;32.77;29.64;99534.16;1712444;83;20226;-80
2022/06/14 10:20:38;;;;;;;;;;;;;;;32.45;30.83;99510.79;1699837;83;20234;-80
2022/06/14 10:24:03;;;;;;;;;;;;;;;32.21;31.27;99531.19;1716085;83;20225;-80
2022/06/14 10:31:10;;;;;;;;;;;;;;;31.80;31.36;99522.13;1692918;85;20205;-80
2022/06/14 10:34:22;;;;;;;;;;;;;;;31.78;31.06;99514.59;1713406;82;20203;-80
2022/06/14 10:37:42;;;;;;;;;;;;;;;31.74;30.95;99516.42;1714292;83;20196;-81
2022/06/14 10:41:08;;;;;;;;;;;;;;;31.73;30.81;99507.70;1729062;82;20609;-80
2022/06/14 10:44:33;;;;;;;;;;;;;;;31.65;29.42;99511.38;1745461;82;20225;-80
2022/06/14 10:47:54;;;;;;;;;;;;;;;31.58;30.50;99504.01;1745699;82;20635;-80
2022/06/14 10:51:24;;;;;;;;;;;;;;;31.60;30.67;99517.20;1737201;82;20206;-80
2022/06/14 10:54:40;;;;;;;;;;;;;;;31.65;29.83;99512.78;1722911;82;20681;-80
2022/06/14 10:57:58;;;;;;;;;;;;;;;31.70;30.59;99505.54;1718036;82;20219;-80
2022/06/14 11:01:21;;;;;;;;;;;;;;;31.71;30.68;99504.39;1730903;82;20234;-80
2022/06/14 11:04:41;;;;;;;;;;;;;;;31.68;30.93;99495.16;1686981;85;20250;-80
2022/06/14 11:07:59;;;;;;;;;;;;;;;31.76;30.23;99487.25;1703987;82;20270;-81
2022/06/14 11:11:34;;;;;;;;;;;;;;;31.84;30.32;99488.41;1719381;82;20227;-80
2022/06/14 11:14:32;;;;;;;;;;;;;;;31.97;29.89;99490.78;1715366;83;20235;-80
2022/06/14 11:18:01;;;;;;;;;;;;;;;31.94;29.47;99486.61;1715422;83;20228;-81
2022/06/14 11:21:14;;;;;;;;;;;;;;;31.90;29.86;99483.39;1714298;83;20215;-81
2022/06/14 11:24:25;;;;;;;;;;;;;;;31.95;30.16;99473.33;1715964;83;20248;-80
2022/06/14 11:27:55;;;;;;;;;;;;;;;31.98;30.20;99470.63;1738226;82;20241;-80
2022/06/14 11:31:04;;;;;;;;;;;;;;;32.03;30.28;99466.78;1744116;82;20221;-80
2022/06/14 11:34:17;;;;;;;;;;;;;;;31.97;29.53;99466.74;1733025;82;20236;-80
2022/06/14 11:37:47;;;;;;;;;;;;;;;31.92;29.84;99468.34;1719209;83;20243;-80
2022/06/14 11:40:57;;;;;;;;;;;;;;;31.78;30.40;99479.25;1715465;83;20251;-80
2022/06/14 11:44:16;;;;;;;;;;;;;;;31.68;31.12;99481.62;1712435;83;20672;-80
2022/06/14 11:47:35;;;;;;;;;;;;;;;31.55;31.24;99483.47;1712263;83;20238;-80
2022/06/14 11:50:46;;;;;;;;;;;;;;;31.45;31.81;99488.06;1718010;83;20325;-80
2022/06/14 11:54:07;;;;;;;;;;;;;;;31.34;32.56;99485.36;1714782;83;20223;-81
2022/06/14 11:57:25;;;;;;;;;;;;;;;31.10;33.24;99493.73;1709344;83;20227;-79
2022/06/14 12:00:48;;;;;;;;;;;;;;;30.87;33.54;99488.00;1714209;82;20264;-80
2022/06/14 12:04:12;;;;;;;;;;;;;;;30.66;34.12;99486.36;1715014;82;20249;-80
2022/06/14 12:07:37;;;;;;;;;;;;;;;30.51;34.18;99487.08;1711819;82;20238;-80
2022/06/14 12:11:20;;;;;;;;;;;;;;;30.39;33.67;99493.92;1708437;83;20756;-80
2022/06/14 12:14:34;;;;;;;;;;;;;;;30.29;33.98;99495.06;1705579;84;20247;-80
2022/06/14 12:17:50;;;;;;;;;;;;;;;30.24;34.26;99497.20;1705688;84;20228;-80
2022/06/14 12:21:00;;;;;;;;;;;;;;;30.17;34.21;99499.69;1721456;82;20244;-80
2022/06/14 12:24:09;;;;;;;;;;;;;;;30.10;35.26;99507.73;1727218;82;20263;-80
2022/06/14 12:27:18;;;;;;;;;;;;;;;29.77;36.84;99496.80;1733234;82;20213;-80
2022/06/14 12:30:21;;;;;;;;;;;;;;;29.29;37.96;99502.52;1736725;82;20245;-80
2022/06/14 12:33:36;;;;;;;;;;;;;;;28.96;38.92;99501.10;1734684;83;20643;-80
2022/06/14 12:36:51;;;;;;;;;;;;;;;28.71;40.15;99499.11;1730650;82;20229;-80
2022/06/14 12:40:09;;;;;;;;;;;;;;;28.34;40.64;99496.54;1727215;83;20224;-80
2022/06/14 12:43:27;;;;;;;;;;;;;;;28.14;41.41;99496.41;1728714;83;20674;-79
2022/06/14 12:46:35;;;;;;;;;;;;;;;28.00;41.68;99498.63;1728437;83;20248;-80
2022/06/14 12:49:44;;;;;;;;;;;;;;;27.88;42.34;99491.27;1729570;83;20241;-80
2022/06/14 12:52:54;;;;;;;;;;;;;;;27.83;42.98;99497.56;1729827;83;20358;-80
2022/06/14 12:56:01;;;;;;;;;;;;;;;27.74;43.14;99487.03;1729075;83;20212;-80
2022/06/14 12:59:11;;;;;;;;;;;;;;;27.70;43.74;99485.95;1729640;83;20213;-80
2022/06/14 13:02:26;;;;;;;;;;;;;;;27.74;44.01;99479.19;1728423;83;20201;-80
2022/06/14 13:05:32;;;;;;;;;;;;;;;27.85;44.11;99482.05;1739874;81;20625;-80
2022/06/14 13:08:56;;;;;;;;;;;;;;;28.06;43.72;99484.47;1759114;81;20633;-80
2022/06/14 13:12:18;;;;;;;;;;;;;;;28.28;43.70;99484.00;1757743;81;20248;-80
2022/06/14 13:15:38;;;;;;;;;;;;;;;28.55;43.27;99484.29;1759485;81;20220;-80
2022/06/14 13:19:03;;;;;;;;;;;;;;;28.82;42.98;99484.23;1759956;81;20313;-80
2022/06/14 13:22:37;;;;;;;;;;;;;;;29.08;42.80;99485.90;1757898;81;20657;-80
2022/06/14 13:25:57;;;;;;;;;;;;;;;29.27;41.54;99492.17;1757863;81;20208;-80
2022/06/14 13:29:21;;;;;;;;;;;;;;;29.14;42.15;99493.64;1759832;81;20216;-80
2022/06/14 13:32:39;;;;;;;;;;;;;;;28.98;42.30;99493.16;1758783;81;20654;-80
2022/06/14 13:35:55;;;;;;;;;;;;;;;29.13;42.70;99490.58;1741820;81;20221;-80
2022/06/14 13:39:07;;;;;;;;;;;;;;;29.21;40.93;99489.20;1737858;82;20227;-80
2022/06/14 13:42:17;;;;;;;;;;;;;;;29.02;39.65;99479.53;1744917;82;20282;-80
2022/06/14 13:45:49;;;;;;;;;;;;;;;28.96;39.75;99481.40;1745862;82;20205;-80
2022/06/14 13:49:15;;;;;;;;;;;;;;;29.01;39.15;99477.05;1745631;82;20245;-80
2022/06/14 13:52:32;;;;;;;;;;;;;;;29.09;38.95;99479.11;1715416;83;20324;-80
2022/06/14 13:55:48;;;;;;;;;;;;;;;29.08;38.38;99476.05;1714897;83;20217;-80
2022/06/14 13:58:59;;;;;;;;;;;;;;;29.12;38.13;99472.82;1716091;83;20216;-80
2022/06/14 14:02:22;;;;;;;;;;;;;;;29.22;38.45;99468.95;1715373;83;20256;-80
2022/06/14 14:05:45;;;;;;;;;;;;;;;29.37;39.76;99470.53;1725767;82;20615;-80
2022/06/14 14:09:18;;;;;;;;;;;;;;;29.44;38.85;99470.89;1745795;82;20204;-80
2022/06/14 14:12:39;;;;;;;;;;;;;;;29.39;38.33;99461.17;1744897;82;20338;-80
2022/06/14 14:15:56;;;;;;;;;;;;;;;29.24;40.49;99461.83;1745610;82;20225;-80
2022/06/14 14:19:09;;;;;;;;;;;;;;;28.97;40.56;99474.03;1745828;82;20280;-80
2022/06/14 14:22:27;;;;;;;;;;;;;;;28.64;39.90;99469.16;1744993;82;20213;-80
2022/06/14 14:25:46;;;;;;;;;;;;;;;28.45;41.86;99466.49;1744778;82;20215;-80
2022/06/14 14:29:04;;;;;;;;;;;;;;;28.42;41.94;99461.52;1745648;82;20217;-80
2022/06/14 14:32:16;;;;;;;;;;;;;;;28.50;40.95;99462.73;1745266;82;20213;-80
2022/06/14 14:35:31;;;;;;;;;;;;;;;28.55;40.06;99464.60;1735021;82;20621;-80
2022/06/14 14:38:44;;;;;;;;;;;;;;;28.59;40.71;99466.47;1719545;83;20215;-80
2022/06/14 14:41:54;;;;;;;;;;;;;;;28.65;40.30;99462.95;1717988;83;20191;-80
2022/06/14 14:45:06;;;;;;;;;;;;;;;28.67;41.20;99460.09;1719200;83;20219;-80
2022/06/14 14:48:29;;;;;;;;;;;;;;;28.72;40.79;99462.79;1719526;83;20242;-80
2022/06/14 14:51:44;;;;;;;;;;;;;;;28.70;41.00;99452.44;1719592;82;20219;-80
2022/06/14 14:55:01;;;;;;;;;;;;;;;28.67;41.51;99455.05;1719470;83;20278;-80
2022/06/14 14:58:35;;;;;;;;;;;;;;;28.64;42.25;99450.05;1717946;83;20232;-80
2022/06/14 15:08:45;;;;;;;;;;;;;;;28.30;43.12;99435.88;1719647;83;20219;-80
2022/06/14 15:11:58;;;;;;;;;;;;;;;28.22;43.91;99441.66;1718064;83;20222;-80
2022/06/14 15:15:22;;;;;;;;;;;;;;;28.10;43.61;99454.02;1718052;83;20204;-80
2022/06/14 15:21:58;;;;;;;;;;;;;;;27.78;44.85;99471.80;1720217;83;20204;-80
2022/06/14 15:25:06;;;;;;;;;;;;;;;27.59;44.50;99483.09;1719738;83;20613;-80
2022/06/14 15:28:20;;;;;;;;;;;;;;;27.45;44.59;99488.67;1719654;83;20223;-80
2022/06/14 15:31:37;;;;;;;;;;;;;;;27.36;44.67;99484.89;1718934;83;20203;-80
2022/06/14 15:34:44;;;;;;;;;;;;;;;27.30;44.72;99492.32;1719449;83;20219;-80
2022/06/14 15:37:48;;;;;;;;;;;;;;;27.19;44.83;99516.33;1722704;83;20601;-80
2022/06/14 15:40:51;;;;;;;;;;;;;;;27.13;45.92;99545.63;1706261;83;20238;-80
2022/06/14 15:44:09;;;;;;;;;;;;;;;27.03;46.61;99556.15;1729547;83;20255;-80
2022/06/14 15:47:15;;;;;;;;;;;;;;;26.89;45.41;99546.25;1728256;83;20234;-80
2022/06/14 15:50:34;;;;;;;;;;;;;;;26.76;44.82;99565.48;1729704;83;20215;-80
2022/06/14 15:53:52;;;;;;;;;;;;;;;26.63;44.29;99574.66;1728971;83;20223;-80
2022/06/14 15:57:07;;;;;;;;;;;;;;;26.46;43.56;99581.32;1729694;83;20300;-80
2022/06/14 16:00:27;;;;;;;;;;;;;;;26.29;42.79;99596.34;1728213;83;20203;-80
2022/06/14 16:03:36;;;;;;;;;;;;;;;26.06;42.18;99605.82;1728960;83;20259;-80
2022/06/14 16:07:02;;;;;;;;;;;;;;;25.85;42.64;99598.20;1729185;83;20211;-80
2022/06/14 16:10:17;;;;;;;;;;;;;;;25.66;43.64;99591.62;1729660;83;20651;-80
2022/06/14 16:13:43;;;;;;;;;;;;;;;25.45;44.66;99598.80;1729004;83;20219;-80
2022/06/14 16:16:51;;;;;;;;;;;;;;;25.29;45.83;99595.83;1727857;83;20258;-80
2022/06/14 16:20:19;;;;;;;;;;;;;;;25.10;47.41;99601.27;1729269;83;20238;-80
2022/06/14 16:23:24;;;;;;;;;;;;;;;24.97;48.19;99598.50;1728816;81;20220;-80
2022/06/14 16:26:45;;;;;;;;;;;;;;;24.87;48.93;99610.31;1758802;81;20247;-80
2022/06/14 16:30:02;;;;;;;;;;;;;;;24.84;50.00;99612.28;1759484;81;20243;-79
2022/06/14 16:33:16;;;;;;;;;;;;;;;24.80;50.90;99610.64;1759310;81;20240;-80
2022/06/14 16:36:39;;;;;;;;;;;;;;;24.77;51.91;99614.00;1759581;81;20192;-80
2022/06/14 16:39:52;;;;;;;;;;;;;;;24.72;52.72;99617.66;1745892;81;20221;-80
2022/06/14 16:43:25;;;;;;;;;;;;;;;24.69;52.90;99607.03;1744021;82;20217;-79
2022/06/14 16:46:38;;;;;;;;;;;;;;;24.69;52.90;99605.64;1732270;82;20614;-79
2022/06/14 16:49:51;;;;;;;;;;;;;;;24.72;53.22;99603.67;1745797;82;20681;-79
2022/06/14 16:53:02;;;;;;;;;;;;;;;24.73;53.45;99608.14;1744531;82;20237;-80
2022/06/14 16:56:21;;;;;;;;;;;;;;;24.73;53.19;99601.72;1743872;82;20713;-80
2022/06/14 16:59:41;;;;;;;;;;;;;;;24.71;53.19;99600.61;1745848;82;20232;-80
2022/06/14 17:03:09;;;;;;;;;;;;;;;24.68;53.33;99601.17;1745705;82;20201;-80
2022/06/14 17:06:17;;;;;;;;;;;;;;;24.66;54.03;99602.03;1745662;82;20216;-80
2022/06/14 17:09:44;;;;;;;;;;;;;;;24.59;55.27;99601.49;1736744;82;20233;-80
2022/06/14 17:13:11;;;;;;;;;;;;;;;24.53;56.45;99611.03;1733815;82;20177;-80
2022/06/14 17:16:30;;;;;;;;;;;;;;;24.46;57.55;99613.28;1660092;86;20224;-80
2022/06/14 17:19:49;;;;;;;;;;;;;;;24.38;58.23;99614.72;1701624;84;20235;-80
2022/06/14 17:23:00;;;;;;;;;;;;;;;24.32;60.82;99607.42;1716870;83;20722;-80